Time;durP1;ratioP1;P1;durP2;ratioP2;P2;SDS_P1;SDS_P2;PMS_P1;PMS_P2;Temp;Humidity;BMP_temperature;BMP_pressure;BME280_temperature;BME280_humidity;BME280_pressure;Samples;Min_cycle;Max_cycle;Signal;HPM_P1;HPM_P2
2023/03/29 00:02:28;;;;;;;7.93;2.42;;;5.10;99.90;;;;;;5033389;28;20075;-73
2023/03/29 00:05:00;;;;;;;9.05;2.70;;;5.10;99.90;;;;;;5048928;28;20052;-73
2023/03/29 00:07:28;;;;;;;8.65;2.70;;;5.20;99.90;;;;;;5024794;28;20143;-73
2023/03/29 00:09:55;;;;;;;9.63;3.08;;;5.20;99.90;;;;;;5032314;28;20076;-73
2023/03/29 00:12:21;;;;;;;7.35;2.75;;;5.10;99.90;;;;;;5075680;28;20060;-73
2023/03/29 00:14:47;;;;;;;11.00;2.75;;;5.00;99.90;;;;;;5045311;28;20359;-73
2023/03/29 00:17:12;;;;;;;8.25;2.42;;;5.10;99.90;;;;;;5032886;28;20052;-73
2023/03/29 00:19:38;;;;;;;11.13;2.90;;;5.00;99.90;;;;;;5029767;28;20053;-73
2023/03/29 00:22:05;;;;;;;7.38;2.60;;;5.10;99.90;;;;;;5010088;28;20551;-73
2023/03/29 00:24:30;;;;;;;9.80;2.70;;;5.10;99.90;;;;;;5030812;28;20106;-73
2023/03/29 00:26:56;;;;;;;11.00;2.67;;;5.00;99.90;;;;;;5013823;28;20045;-73
2023/03/29 00:29:22;;;;;;;11.27;2.70;;;5.10;99.90;;;;;;5030208;28;20053;-73
2023/03/29 00:31:52;;;;;;;8.18;2.90;;;5.10;99.90;;;;;;5032613;28;20109;-73
2023/03/29 00:34:22;;;;;;;10.70;2.92;;;5.00;99.90;;;;;;5032324;28;20037;-73
2023/03/29 00:36:49;;;;;;;5.70;2.42;;;5.00;99.90;;;;;;5032756;28;20472;-74
2023/03/29 00:39:19;;;;;;;5.83;2.20;;;5.00;99.90;;;;;;5032114;28;20052;-73
2023/03/29 00:41:45;;;;;;;7.45;2.70;;;5.00;99.90;;;;;;5032936;28;20516;-74
2023/03/29 00:44:49;;;;;;;6.63;2.47;;;5.10;99.90;;;;;;5048861;28;20430;-73
2023/03/29 00:47:16;;;;;;;7.25;2.45;;;5.00;99.90;;;;;;5049413;28;20045;-73
2023/03/29 00:49:44;;;;;;;10.52;3.03;;;5.00;99.90;;;;;;5014984;28;20851;-73
2023/03/29 00:52:10;;;;;;;8.75;2.88;;;5.00;99.90;;;;;;5042494;28;20041;-73
2023/03/29 00:54:36;;;;;;;6.90;2.65;;;5.00;99.90;;;;;;5049178;28;20091;-73
2023/03/29 00:57:02;;;;;;;9.45;2.40;;;5.00;99.90;;;;;;5048577;28;20041;-73
2023/03/29 00:59:28;;;;;;;10.45;2.63;;;5.00;99.90;;;;;;5032822;28;20041;-73
2023/03/29 01:02:05;;;;;;;9.52;2.42;;;5.00;99.90;;;;;;5032614;28;20563;-73
2023/03/29 01:04:56;;;;;;;7.55;2.60;;;5.00;99.90;;;;;;5042896;28;20130;-73
2023/03/29 01:07:27;;;;;;;7.55;2.30;;;5.00;99.90;;;;;;5038719;28;20037;-73
2023/03/29 01:10:09;;;;;;;10.30;2.90;;;5.00;99.90;;;;;;5020034;28;20060;-73
2023/03/29 01:12:42;;;;;;;11.43;2.60;;;5.00;99.90;;;;;;5052326;28;20045;-73
2023/03/29 01:15:09;;;;;;;10.35;2.65;;;4.90;99.90;;;;;;5020386;28;20057;-73
2023/03/29 01:17:35;;;;;;;11.80;2.38;;;4.90;99.90;;;;;;5015781;28;20714;-73
2023/03/29 01:20:13;;;;;;;7.72;2.50;;;5.00;99.90;;;;;;5052764;28;20056;-73
2023/03/29 01:23:02;;;;;;;9.93;2.40;;;4.90;99.90;;;;;;5002123;28;20038;-73
2023/03/29 01:25:34;;;;;;;6.88;2.55;;;4.90;99.90;;;;;;5049151;28;20372;-73
2023/03/29 01:28:10;;;;;;;10.82;2.75;;;4.90;99.90;;;;;;5053359;28;20044;-73
2023/03/29 01:30:41;;;;;;;5.82;2.70;;;4.90;99.90;;;;;;5031204;28;20533;-73
2023/03/29 01:33:22;;;;;;;8.13;2.22;;;4.90;99.90;;;;;;5052247;28;20060;-73
2023/03/29 01:36:02;;;;;;;9.50;2.58;;;4.90;99.90;;;;;;5053350;28;20133;-73
2023/03/29 01:38:47;;;;;;;12.95;3.17;;;4.90;99.90;;;;;;5015825;28;20553;-73
2023/03/29 01:41:13;;;;;;;11.30;2.90;;;4.90;99.90;;;;;;5036539;28;20509;-73
2023/03/29 01:44:00;;;;;;;10.65;3.03;;;4.80;99.90;;;;;;5021015;28;20056;-72
2023/03/29 01:46:28;;;;;;;8.60;2.53;;;4.80;99.90;;;;;;5051852;28;20053;-73
2023/03/29 01:48:57;;;;;;;11.93;3.25;;;4.80;99.90;;;;;;5052725;28;20037;-73
2023/03/29 01:51:51;;;;;;;6.85;3.13;;;4.80;99.90;;;;;;5052851;28;20041;-73
2023/03/29 01:54:39;;;;;;;6.47;2.70;;;4.80;99.90;;;;;;5029893;28;20608;-73
2023/03/29 01:57:05;;;;;;;7.28;3.00;;;4.70;99.90;;;;;;5037565;28;20109;-73
2023/03/29 01:59:33;;;;;;;6.63;2.33;;;4.70;99.90;;;;;;5035745;28;20044;-73
2023/03/29 02:02:00;;;;;;;8.27;2.53;;;4.80;99.90;;;;;;5035184;28;20048;-73
2023/03/29 02:04:33;;;;;;;8.85;3.00;;;4.70;99.90;;;;;;5035698;28;20146;-73
2023/03/29 02:06:59;;;;;;;6.15;2.58;;;4.70;99.90;;;;;;5036445;28;20045;-73
2023/03/29 02:09:25;;;;;;;8.77;2.10;;;4.70;99.90;;;;;;5051876;28;20048;-73
2023/03/29 02:11:51;;;;;;;6.15;2.40;;;4.70;99.90;;;;;;5050935;28;20048;-73
2023/03/29 02:14:18;;;;;;;7.28;2.70;;;4.70;99.90;;;;;;5047314;28;20426;-73
2023/03/29 02:16:45;;;;;;;7.40;2.65;;;4.70;99.90;;;;;;5050883;28;20060;-73
2023/03/29 02:19:10;;;;;;;6.88;2.40;;;4.70;99.90;;;;;;5031850;28;20040;-73
2023/03/29 02:21:47;;;;;;;7.40;2.22;;;4.60;99.90;;;;;;5048795;28;20037;-73
2023/03/29 02:24:14;;;;;;;4.70;2.20;;;4.60;99.90;;;;;;5051307;28;20131;-73
2023/03/29 02:26:40;;;;;;;6.03;2.65;;;4.70;99.90;;;;;;5010195;28;20056;-73
2023/03/29 02:29:06;;;;;;;6.22;2.40;;;4.60;99.90;;;;;;5028185;28;20053;-73
2023/03/29 02:31:38;;;;;;;4.57;2.30;;;4.70;99.90;;;;;;5065908;28;20474;-73
2023/03/29 02:34:18;;;;;;;7.53;2.58;;;4.70;99.90;;;;;;5047207;28;20087;-73
2023/03/29 02:36:46;;;;;;;8.40;2.35;;;4.60;99.90;;;;;;5051425;28;20049;-73
2023/03/29 02:39:14;;;;;;;11.05;2.40;;;4.60;99.90;;;;;;5030053;28;20084;-74
2023/03/29 02:41:42;;;;;;;9.35;2.25;;;4.60;99.90;;;;;;5022520;28;20041;-73
2023/03/29 02:44:09;;;;;;;8.63;2.70;;;4.60;99.90;;;;;;5037184;28;20132;-74
2023/03/29 02:46:36;;;;;;;5.25;2.33;;;4.70;99.90;;;;;;5050762;28;20045;-73
2023/03/29 02:49:04;;;;;;;11.10;2.33;;;4.70;99.90;;;;;;5051006;28;20064;-73
2023/03/29 02:51:31;;;;;;;5.90;2.33;;;4.80;99.90;;;;;;5055023;28;20128;-73
2023/03/29 02:54:28;;;;;;;6.57;2.40;;;4.80;99.90;;;;;;5014509;28;20045;-73
2023/03/29 02:56:56;;;;;;;7.80;2.95;;;4.80;99.90;;;;;;5050195;28;20053;-73
2023/03/29 02:59:23;;;;;;;7.38;2.17;;;4.80;99.90;;;;;;5049765;28;20041;-73
2023/03/29 03:01:48;;;;;;;8.80;2.38;;;4.80;99.90;;;;;;5033160;28;20041;-74
2023/03/29 03:04:16;;;;;;;5.57;2.60;;;4.80;99.90;;;;;;5050118;28;20055;-73
2023/03/29 03:06:41;;;;;;;8.93;2.72;;;4.80;99.90;;;;;;5001011;28;20067;-73
2023/03/29 03:09:08;;;;;;;8.05;2.70;;;4.80;99.90;;;;;;5032902;28;20053;-73
2023/03/29 03:11:34;;;;;;;10.15;2.58;;;4.90;99.90;;;;;;5042035;28;20175;-73
2023/03/29 03:14:00;;;;;;;8.13;2.60;;;5.00;99.90;;;;;;5026056;28;20131;-73
2023/03/29 03:16:26;;;;;;;7.32;2.33;;;5.00;99.90;;;;;;5014933;28;20073;-73
2023/03/29 03:18:54;;;;;;;6.82;2.25;;;5.10;99.90;;;;;;5033903;28;20071;-73
2023/03/29 03:21:21;;;;;;;8.43;3.00;;;5.10;99.90;;;;;;5040392;28;20486;-73
2023/03/29 03:23:47;;;;;;;5.20;2.38;;;5.00;99.90;;;;;;5050642;28;20055;-73
2023/03/29 03:26:13;;;;;;;6.20;2.50;;;5.10;99.90;;;;;;5047816;28;20110;-73
2023/03/29 03:28:39;;;;;;;8.20;2.63;;;5.10;99.90;;;;;;5016558;28;20053;-73
2023/03/29 03:31:06;;;;;;;10.82;2.70;;;5.20;99.90;;;;;;5050537;28;20473;-73
2023/03/29 03:33:31;;;;;;;6.78;2.60;;;5.20;99.90;;;;;;5044003;28;20049;-74
2023/03/29 03:36:01;;;;;;;8.25;2.95;;;5.20;99.90;;;;;;5033797;28;20381;-75
2023/03/29 03:38:28;;;;;;;8.30;2.67;;;5.20;99.90;;;;;;5023943;28;20046;-74
2023/03/29 03:40:55;;;;;;;9.60;3.25;;;5.20;99.90;;;;;;5014119;28;20041;-74
2023/03/29 03:43:21;;;;;;;6.60;2.88;;;5.20;99.90;;;;;;5023353;28;20045;-75
2023/03/29 03:45:47;;;;;;;5.10;2.70;;;5.20;99.90;;;;;;5043973;28;20729;-75
2023/03/29 03:48:12;;;;;;;6.93;3.22;;;5.20;99.90;;;;;;5033412;28;20052;-75
2023/03/29 03:50:39;;;;;;;7.13;3.15;;;5.20;99.90;;;;;;5007620;28;20045;-75
2023/03/29 03:53:06;;;;;;;8.35;3.10;;;5.20;99.90;;;;;;5050500;28;20198;-74
2023/03/29 03:55:32;;;;;;;8.50;2.88;;;5.10;99.90;;;;;;5048162;28;20045;-74
2023/03/29 03:57:58;;;;;;;9.68;3.38;;;5.10;99.90;;;;;;5032402;28;20064;-74
2023/03/29 04:00:24;;;;;;;7.53;2.90;;;5.00;99.90;;;;;;5049435;28;20182;-74
2023/03/29 04:02:53;;;;;;;12.02;3.80;;;5.00;99.90;;;;;;5049645;28;20792;-74
2023/03/29 04:05:19;;;;;;;6.55;3.20;;;5.00;99.90;;;;;;5050368;28;20381;-74
2023/03/29 04:07:44;;;;;;;8.30;3.05;;;5.00;99.90;;;;;;5049716;28;20170;-74
2023/03/29 04:10:10;;;;;;;6.15;3.08;;;5.00;99.90;;;;;;5013676;28;20087;-74
2023/03/29 04:12:36;;;;;;;7.38;3.40;;;4.90;99.90;;;;;;5014023;28;20758;-74
2023/03/29 04:15:02;;;;;;;8.15;3.65;;;4.90;99.90;;;;;;5016921;28;20490;-75
2023/03/29 04:17:28;;;;;;;10.20;4.47;;;4.90;99.90;;;;;;5049467;28;20642;-74
2023/03/29 04:19:55;;;;;;;7.15;3.42;;;4.90;99.90;;;;;;5049449;28;20044;-74
2023/03/29 04:22:20;;;;;;;7.38;3.83;;;4.90;99.90;;;;;;5048084;28;20041;-74
2023/03/29 04:24:46;;;;;;;8.75;4.10;;;4.90;99.90;;;;;;5054986;28;20106;-75
2023/03/29 04:27:12;;;;;;;7.20;4.03;;;4.90;99.90;;;;;;5033076;28;20040;-74
2023/03/29 04:29:38;;;;;;;8.43;4.40;;;4.90;99.90;;;;;;5031840;28;20051;-74
2023/03/29 04:32:03;;;;;;;8.95;4.90;;;4.90;99.90;;;;;;5029584;28;20058;-74
2023/03/29 04:34:29;;;;;;;11.05;4.63;;;5.00;99.90;;;;;;5033096;28;20438;-75
2023/03/29 04:36:57;;;;;;;7.90;4.35;;;5.00;99.90;;;;;;5032653;28;20075;-74
2023/03/29 04:39:30;;;;;;;8.57;4.85;;;4.90;99.90;;;;;;5037868;28;20462;-74
2023/03/29 04:41:56;;;;;;;9.57;4.68;;;5.00;99.90;;;;;;5037482;28;20095;-75
2023/03/29 04:44:22;;;;;;;10.60;4.72;;;5.00;99.90;;;;;;5053921;28;20044;-74
2023/03/29 04:46:48;;;;;;;9.93;5.63;;;4.90;99.90;;;;;;5034330;28;20049;-74
2023/03/29 04:49:13;;;;;;;8.80;4.72;;;4.80;99.90;;;;;;5036363;28;20056;-74
2023/03/29 04:51:39;;;;;;;11.63;5.10;;;4.80;99.90;;;;;;5033426;28;20094;-75
2023/03/29 04:54:06;;;;;;;10.98;5.60;;;4.80;99.90;;;;;;5063402;28;20682;-74
2023/03/29 04:56:32;;;;;;;12.73;5.90;;;4.80;99.90;;;;;;5033498;28;20045;-75
2023/03/29 04:58:57;;;;;;;8.75;5.53;;;4.90;99.90;;;;;;5035617;28;20098;-74
2023/03/29 05:01:23;;;;;;;11.50;5.88;;;4.80;99.90;;;;;;5020405;28;20094;-74
2023/03/29 05:03:49;;;;;;;11.30;5.82;;;4.90;99.90;;;;;;5016831;28;20036;-74
2023/03/29 05:06:15;;;;;;;10.75;6.03;;;4.90;99.90;;;;;;5036834;28;20049;-74
2023/03/29 05:08:41;;;;;;;10.63;5.63;;;4.90;99.90;;;;;;5053221;28;20063;-74
2023/03/29 05:11:10;;;;;;;8.25;5.95;;;4.90;99.90;;;;;;5032636;28;20365;-74
2023/03/29 05:13:36;;;;;;;9.20;6.15;;;4.90;99.90;;;;;;5036245;28;20068;-74
2023/03/29 05:16:03;;;;;;;11.63;6.38;;;4.90;99.90;;;;;;5032979;28;20149;-74
2023/03/29 05:18:28;;;;;;;10.95;5.45;;;4.90;99.90;;;;;;5050987;28;20570;-75
2023/03/29 05:20:55;;;;;;;11.35;5.95;;;5.00;99.90;;;;;;5033317;28;20128;-75
2023/03/29 05:23:21;;;;;;;10.32;5.50;;;5.00;99.90;;;;;;5035762;28;20492;-75
2023/03/29 05:25:47;;;;;;;10.23;6.22;;;4.90;99.90;;;;;;5053248;28;20048;-75
2023/03/29 05:28:14;;;;;;;11.57;6.22;;;4.90;99.90;;;;;;5019481;28;20445;-75
2023/03/29 05:30:40;;;;;;;9.48;5.82;;;4.90;99.90;;;;;;5046725;28;20072;-75
2023/03/29 05:33:06;;;;;;;10.80;6.20;;;4.90;99.90;;;;;;5052725;28;20206;-75
2023/03/29 05:35:32;;;;;;;9.48;5.63;;;5.00;99.90;;;;;;5035870;28;20343;-75
2023/03/29 05:37:59;;;;;;;10.95;6.40;;;5.00;99.90;;;;;;5034173;28;20830;-75
2023/03/29 05:40:25;;;;;;;10.10;6.10;;;5.00;99.90;;;;;;5046746;28;20739;-75
2023/03/29 05:42:51;;;;;;;14.40;6.38;;;5.00;99.90;;;;;;5003723;28;20037;-75
2023/03/29 05:45:18;;;;;;;11.82;6.55;;;5.00;99.90;;;;;;5003335;28;20450;-74
2023/03/29 05:47:43;;;;;;;12.95;5.65;;;5.10;99.90;;;;;;5004763;28;20091;-75
2023/03/29 05:50:11;;;;;;;13.60;6.10;;;5.10;99.90;;;;;;5057356;28;20393;-75
2023/03/29 05:52:37;;;;;;;13.27;6.88;;;5.10;99.90;;;;;;5033173;28;20045;-75
2023/03/29 05:55:04;;;;;;;11.15;5.57;;;5.10;99.90;;;;;;5035767;28;20059;-74
2023/03/29 05:57:31;;;;;;;11.80;6.63;;;5.10;99.90;;;;;;5032487;28;20065;-75
2023/03/29 05:59:56;;;;;;;11.77;5.80;;;5.20;99.90;;;;;;5036549;28;20157;-75
2023/03/29 06:02:24;;;;;;;11.68;6.25;;;5.10;99.90;;;;;;5049469;28;20147;-75
2023/03/29 06:04:50;;;;;;;13.63;6.15;;;5.20;99.90;;;;;;5019606;28;20045;-75
2023/03/29 06:07:17;;;;;;;12.52;7.00;;;5.20;99.90;;;;;;5052952;28;20421;-75
2023/03/29 06:09:44;;;;;;;11.38;6.32;;;5.20;99.90;;;;;;5019034;28;20045;-75
2023/03/29 06:12:11;;;;;;;14.40;6.95;;;5.30;99.90;;;;;;5017831;28;20408;-74
2023/03/29 06:14:36;;;;;;;11.93;6.68;;;5.20;99.90;;;;;;5021402;28;20049;-74
2023/03/29 06:17:02;;;;;;;12.95;6.43;;;5.20;99.90;;;;;;5050633;28;20048;-74
2023/03/29 06:19:28;;;;;;;11.38;6.70;;;5.30;99.90;;;;;;5032615;28;20041;-75
2023/03/29 06:21:54;;;;;;;12.35;6.07;;;5.20;99.90;;;;;;5033791;28;20048;-75
2023/03/29 06:24:20;;;;;;;10.52;6.38;;;5.40;99.90;;;;;;5019232;28;20041;-75
2023/03/29 06:26:46;;;;;;;13.65;6.22;;;5.40;99.90;;;;;;5048221;28;20068;-75
2023/03/29 06:29:11;;;;;;;10.80;6.75;;;5.40;99.90;;;;;;5052591;28;20119;-75
2023/03/29 06:31:37;;;;;;;11.02;6.28;;;5.40;99.90;;;;;;5035938;28;20786;-76
2023/03/29 06:34:03;;;;;;;11.07;6.25;;;5.50;99.90;;;;;;5018287;28;20074;-75
2023/03/29 06:36:31;;;;;;;12.00;5.97;;;5.40;99.90;;;;;;5018182;28;20164;-74
2023/03/29 06:38:58;;;;;;;11.60;6.53;;;5.40;99.90;;;;;;5028214;28;20056;-74
2023/03/29 06:41:25;;;;;;;8.52;6.50;;;5.60;99.90;;;;;;5027970;28;20044;-74
2023/03/29 06:43:52;;;;;;;9.77;6.28;;;5.60;99.90;;;;;;5033964;28;20036;-75
2023/03/29 06:46:18;;;;;;;11.65;6.10;;;5.60;99.90;;;;;;5035129;28;20124;-74
2023/03/29 06:48:44;;;;;;;8.60;6.00;;;5.60;99.90;;;;;;5032721;28;20182;-75
2023/03/29 06:51:10;;;;;;;14.50;7.35;;;5.70;99.90;;;;;;5030242;28;20124;-75
2023/03/29 06:53:36;;;;;;;8.68;6.07;;;5.70;99.90;;;;;;5052883;28;20521;-75
2023/03/29 06:56:07;;;;;;;9.50;5.68;;;5.70;99.90;;;;;;5035179;28;20067;-75
2023/03/29 06:58:35;;;;;;;9.93;5.68;;;5.80;99.90;;;;;;5034670;28;20091;-75
2023/03/29 07:01:02;;;;;;;10.20;6.07;;;5.80;99.90;;;;;;5032352;28;20126;-75
2023/03/29 07:03:28;;;;;;;10.27;6.07;;;5.90;99.90;;;;;;5019029;28;20049;-75
2023/03/29 07:06:01;;;;;;;12.30;7.22;;;5.80;99.90;;;;;;5022222;28;20053;-75
2023/03/29 07:08:30;;;;;;;12.23;6.30;;;5.80;99.90;;;;;;5050698;28;20044;-76
2023/03/29 07:10:58;;;;;;;10.02;5.60;;;5.90;99.90;;;;;;5032007;28;20055;-76
2023/03/29 07:13:25;;;;;;;12.80;5.70;;;5.90;99.90;;;;;;5046376;28;20092;-75
2023/03/29 07:15:51;;;;;;;13.55;5.90;;;6.00;99.90;;;;;;5050458;28;20048;-76
2023/03/29 07:18:17;;;;;;;10.85;6.35;;;6.00;99.90;;;;;;5017890;28;20041;-75
2023/03/29 07:20:46;;;;;;;10.07;5.57;;;6.00;99.90;;;;;;5015393;28;20067;-76
2023/03/29 07:23:12;;;;;;;9.70;5.60;;;6.10;99.90;;;;;;5018848;28;20810;-75
2023/03/29 07:25:38;;;;;;;12.38;6.32;;;6.10;99.90;;;;;;5034345;28;20078;-75
2023/03/29 07:28:05;;;;;;;10.13;5.95;;;6.20;99.90;;;;;;5033256;28;20041;-75
2023/03/29 07:30:30;;;;;;;10.15;5.38;;;6.10;99.90;;;;;;5017598;28;20044;-75
2023/03/29 07:32:57;;;;;;;12.93;6.13;;;6.30;99.90;;;;;;5050947;28;20693;-75
2023/03/29 07:35:23;;;;;;;10.10;5.47;;;6.30;99.90;;;;;;5007137;28;20413;-75
2023/03/29 07:37:49;;;;;;;8.15;5.50;;;6.30;99.90;;;;;;5029561;28;20041;-75
2023/03/29 07:40:22;;;;;;;11.32;5.90;;;6.40;99.90;;;;;;5017720;28;20037;-75
2023/03/29 07:42:52;;;;;;;13.30;5.68;;;6.60;99.90;;;;;;5033145;28;20037;-75
2023/03/29 07:45:22;;;;;;;13.23;6.50;;;6.70;99.90;;;;;;5018012;28;20041;-75
2023/03/29 07:47:48;;;;;;;12.30;5.75;;;6.60;99.90;;;;;;5047685;28;20049;-76
2023/03/29 07:50:15;;;;;;;9.00;5.28;;;6.90;99.90;;;;;;5014424;28;20045;-75
2023/03/29 07:52:41;;;;;;;13.23;5.32;;;7.00;99.90;;;;;;5033432;28;20055;-75
2023/03/29 07:55:08;;;;;;;7.60;5.10;;;7.20;99.90;;;;;;5050727;28;20049;-76
2023/03/29 07:57:34;;;;;;;10.23;5.07;;;7.10;99.90;;;;;;5017481;28;20045;-76
2023/03/29 07:59:59;;;;;;;8.50;5.20;;;7.10;99.90;;;;;;5030475;28;20045;-74
2023/03/29 08:02:26;;;;;;;10.05;5.35;;;7.10;99.90;;;;;;5014313;28;20037;-76
2023/03/29 08:04:56;;;;;;;11.13;5.22;;;7.20;99.90;;;;;;5021533;28;20478;-75
2023/03/29 08:07:23;;;;;;;9.82;5.30;;;7.20;99.90;;;;;;5037361;28;20052;-75
2023/03/29 08:09:48;;;;;;;8.95;4.82;;;7.30;99.90;;;;;;5051157;28;20493;-75
2023/03/29 08:12:14;;;;;;;8.20;4.75;;;7.40;99.90;;;;;;5048909;28;20068;-75
2023/03/29 08:14:40;;;;;;;6.43;4.25;;;7.40;99.90;;;;;;5049403;28;20130;-76
2023/03/29 08:17:06;;;;;;;11.25;5.13;;;7.30;99.90;;;;;;5050190;28;20048;-75
2023/03/29 08:19:32;;;;;;;8.60;4.80;;;7.30;99.90;;;;;;5033782;28;20041;-75
2023/03/29 08:21:58;;;;;;;8.32;5.05;;;7.40;99.90;;;;;;5028281;28;20041;-75
2023/03/29 08:24:25;;;;;;;9.52;5.20;;;7.40;99.90;;;;;;5057688;28;20067;-75
2023/03/29 08:26:52;;;;;;;8.93;5.10;;;7.50;99.90;;;;;;5050924;28;20049;-74
2023/03/29 08:29:17;;;;;;;8.80;5.22;;;7.50;99.90;;;;;;4997517;28;20868;-75
2023/03/29 08:31:44;;;;;;;9.38;5.18;;;7.50;99.90;;;;;;5030109;28;20055;-74
2023/03/29 08:34:09;;;;;;;11.95;6.07;;;7.50;99.90;;;;;;5017561;28;20040;-75
2023/03/29 08:36:35;;;;;;;11.38;5.53;;;7.40;99.90;;;;;;5027130;28;20049;-75
2023/03/29 08:39:02;;;;;;;9.77;5.55;;;7.50;99.90;;;;;;5032195;28;20045;-76
2023/03/29 08:41:49;;;;;;;9.73;5.00;;;7.70;99.90;;;;;;5040330;28;20483;-76
2023/03/29 08:44:20;;;;;;;10.20;4.72;;;7.60;99.90;;;;;;5048142;28;20166;-76
2023/03/29 08:47:13;;;;;;;11.20;4.40;;;7.60;99.90;;;;;;5043671;28;20433;-76
2023/03/29 08:49:39;;;;;;;8.35;4.60;;;7.70;99.90;;;;;;5040567;28;20079;-76
2023/03/29 08:52:10;;;;;;;11.88;4.60;;;7.80;99.90;;;;;;5030753;28;20045;-77
2023/03/29 08:54:40;;;;;;;11.70;5.30;;;7.80;99.90;;;;;;5043101;28;20863;-77
2023/03/29 08:57:11;;;;;;;9.65;4.00;;;7.90;99.90;;;;;;5025984;28;20057;-76
2023/03/29 08:59:36;;;;;;;7.65;4.53;;;7.90;99.90;;;;;;5040891;28;20041;-76
2023/03/29 09:02:03;;;;;;;10.48;5.10;;;8.00;99.90;;;;;;5044003;28;20048;-76
2023/03/29 09:04:38;;;;;;;9.50;4.82;;;8.00;99.90;;;;;;5017452;28;20048;-76
2023/03/29 09:07:08;;;;;;;12.50;4.85;;;8.00;99.90;;;;;;5017358;28;20053;-76
2023/03/29 09:09:33;;;;;;;9.70;5.07;;;7.90;99.90;;;;;;5050934;28;20094;-75
2023/03/29 09:12:31;;;;;;;10.50;4.65;;;7.90;99.90;;;;;;5029619;28;20049;-74
2023/03/29 09:15:23;;;;;;;8.57;4.78;;;8.00;99.90;;;;;;5037288;28;20392;-76
2023/03/29 09:18:17;;;;;;;8.23;4.32;;;8.00;99.90;;;;;;5024780;28;20140;-76
2023/03/29 09:21:00;;;;;;;9.60;4.05;;;8.00;99.90;;;;;;5020480;28;20095;-75
2023/03/29 09:23:37;;;;;;;8.20;4.43;;;8.00;99.90;;;;;;5005347;28;20049;-75
2023/03/29 09:26:06;;;;;;;8.82;4.60;;;8.00;99.90;;;;;;5053585;28;20041;-76
2023/03/29 09:28:33;;;;;;;8.13;4.72;;;8.00;99.90;;;;;;5051758;28;20041;-76
2023/03/29 09:31:04;;;;;;;7.43;4.72;;;8.10;99.90;;;;;;5027066;28;20399;-76
2023/03/29 09:33:38;;;;;;;10.85;4.82;;;8.10;99.90;;;;;;5050452;28;20044;-75
2023/03/29 09:36:17;;;;;;;7.88;4.68;;;8.10;99.90;;;;;;5047635;28;20045;-76
2023/03/29 09:38:45;;;;;;;10.05;4.45;;;8.00;99.90;;;;;;5043292;28;20052;-75
2023/03/29 09:41:39;;;;;;;8.00;3.88;;;8.10;99.90;;;;;;5013648;28;20048;-75
2023/03/29 09:44:24;;;;;;;7.18;4.18;;;8.10;99.90;;;;;;5010880;28;20056;-75
2023/03/29 09:46:55;;;;;;;9.88;4.40;;;8.20;99.90;;;;;;5035365;28;20044;-75
2023/03/29 09:49:27;;;;;;;9.57;4.28;;;8.30;99.90;;;;;;5012516;28;20045;-75
2023/03/29 09:51:54;;;;;;;11.02;4.20;;;8.50;99.90;;;;;;5032944;28;20677;-75
2023/03/29 09:54:21;;;;;;;8.05;4.70;;;8.60;99.90;;;;;;5029024;28;20526;-75
2023/03/29 09:56:46;;;;;;;8.35;4.28;;;8.50;99.90;;;;;;5016429;28;20140;-75
2023/03/29 09:59:13;;;;;;;7.80;4.20;;;8.50;99.90;;;;;;5052138;28;20152;-75
2023/03/29 10:01:40;;;;;;;8.25;4.07;;;8.50;99.90;;;;;;5029446;28;20041;-75
2023/03/29 10:04:07;;;;;;;7.10;4.28;;;8.60;99.90;;;;;;5022597;28;20055;-75
2023/03/29 10:06:35;;;;;;;7.93;4.30;;;8.60;99.90;;;;;;5032402;28;20102;-75
2023/03/29 10:09:01;;;;;;;7.85;4.50;;;8.70;99.90;;;;;;5025347;28;20049;-75
2023/03/29 10:11:34;;;;;;;11.57;7.10;;;8.60;99.90;;;;;;5031132;28;20050;-76
2023/03/29 10:14:05;;;;;;;7.13;4.15;;;8.60;99.90;;;;;;5031638;28;20073;-75
2023/03/29 10:16:37;;;;;;;8.15;3.95;;;8.50;99.90;;;;;;5043051;28;20056;-75
2023/03/29 10:19:22;;;;;;;7.30;4.32;;;8.40;99.90;;;;;;5006236;28;20119;-75
2023/03/29 10:21:52;;;;;;;8.35;4.15;;;8.40;99.90;;;;;;5036242;28;20079;-75
2023/03/29 10:24:24;;;;;;;9.02;4.47;;;8.30;99.90;;;;;;4999490;28;20135;-75
2023/03/29 10:26:54;;;;;;;8.05;4.15;;;8.30;99.90;;;;;;5022651;28;20045;-75
2023/03/29 10:29:21;;;;;;;8.73;4.50;;;8.40;99.90;;;;;;5032959;28;20055;-74
2023/03/29 10:31:47;;;;;;;9.77;4.75;;;8.30;99.90;;;;;;5015538;28;20128;-74
2023/03/29 10:34:14;;;;;;;8.05;4.47;;;8.40;99.90;;;;;;5007080;28;20049;-75
2023/03/29 10:36:41;;;;;;;9.70;4.78;;;8.40;99.90;;;;;;5026586;28;20073;-75
2023/03/29 10:39:08;;;;;;;9.00;4.72;;;8.50;99.90;;;;;;5034377;28;20167;-75
2023/03/29 10:41:34;;;;;;;9.25;4.82;;;8.60;99.90;;;;;;5005657;28;20041;-75
2023/03/29 10:43:59;;;;;;;14.90;5.35;;;8.50;99.90;;;;;;5034646;28;20052;-75
2023/03/29 10:46:38;;;;;;;8.18;4.68;;;8.60;99.90;;;;;;5010063;28;20041;-75
2023/03/29 10:49:09;;;;;;;10.70;4.32;;;8.60;99.90;;;;;;5038528;28;20053;-75
2023/03/29 10:51:34;;;;;;;6.15;3.80;;;8.70;99.90;;;;;;5012748;28;20069;-74
2023/03/29 10:54:01;;;;;;;8.52;4.35;;;8.80;99.90;;;;;;5012648;28;20486;-74
2023/03/29 10:56:56;;;;;;;11.30;4.65;;;8.70;99.90;;;;;;5005529;28;20045;-75
2023/03/29 10:59:26;;;;;;;7.63;4.25;;;8.80;99.90;;;;;;5017698;28;20045;-73
2023/03/29 11:02:14;;;;;;;10.52;4.15;;;8.80;99.90;;;;;;5021431;28;20053;-74
2023/03/29 11:04:46;;;;;;;9.35;4.47;;;9.00;99.90;;;;;;5037314;28;20041;-74
2023/03/29 11:07:21;;;;;;;7.45;4.20;;;9.00;99.90;;;;;;5037990;28;20102;-75
2023/03/29 11:09:59;;;;;;;10.52;4.57;;;9.00;99.90;;;;;;5038896;28;20185;-74
2023/03/29 11:12:47;;;;;;;8.63;4.38;;;9.00;99.90;;;;;;5042744;28;20471;-75
2023/03/29 11:15:35;;;;;;;6.45;4.07;;;9.10;99.90;;;;;;5030894;28;20389;-75
2023/03/29 11:18:06;;;;;;;8.93;4.10;;;9.20;99.90;;;;;;5023953;28;20210;-75
2023/03/29 11:20:45;;;;;;;8.45;4.00;;;9.30;99.90;;;;;;5038747;28;20359;-75
2023/03/29 11:23:33;;;;;;;10.82;4.80;;;9.30;99.90;;;;;;5024011;28;20380;-75
2023/03/29 11:26:02;;;;;;;7.63;4.20;;;9.50;99.90;;;;;;5033936;28;20076;-75
2023/03/29 11:28:28;;;;;;;8.30;4.07;;;9.80;99.90;;;;;;5032035;28;20466;-76
2023/03/29 11:31:21;;;;;;;7.38;3.95;;;9.70;99.90;;;;;;5040589;28;20048;-75
2023/03/29 11:34:06;;;;;;;7.18;3.67;;;9.90;99.90;;;;;;5023875;28;20051;-75
2023/03/29 11:36:49;;;;;;;7.30;4.25;;;10.30;99.90;;;;;;5032810;28;20049;-75
2023/03/29 11:39:37;;;;;;;5.93;3.53;;;10.30;99.90;;;;;;5008222;28;20442;-75
2023/03/29 11:42:07;;;;;;;;;;;10.80;99.90;;;;;;5038095;28;20144;-75
2023/03/29 11:44:33;;;;;;;5.93;3.83;;;10.80;99.90;;;;;;5037794;28;20270;-76
2023/03/29 11:47:06;;;;;;;7.97;3.65;;;10.60;99.90;;;;;;5005547;28;20183;-75
2023/03/29 11:49:50;;;;;;;7.75;3.80;;;11.00;99.90;;;;;;5042190;28;20485;-75
2023/03/29 11:52:36;;;;;;;6.95;3.67;;;11.00;99.90;;;;;;5037912;28;20049;-76
2023/03/29 11:55:33;;;;;;;5.78;3.70;;;11.20;99.90;;;;;;5030050;28;20064;-76
2023/03/29 11:58:17;;;;;;;6.15;3.38;;;11.30;99.90;;;;;;5039202;28;20033;-75
2023/03/29 12:00:55;;;;;;;5.88;3.50;;;11.30;99.90;;;;;;5036699;28;20788;-75
2023/03/29 12:03:35;;;;;;;5.82;3.67;;;11.40;99.90;;;;;;5021793;28;20041;-76
2023/03/29 12:06:09;;;;;;;7.57;3.70;;;11.20;99.90;;;;;;5020111;28;20045;-75
2023/03/29 12:08:38;;;;;;;5.75;3.42;;;11.10;99.90;;;;;;5020318;28;20037;-76
2023/03/29 12:11:41;;;;;;;5.97;3.55;;;11.00;99.90;;;;;;5019704;28;20076;-75
2023/03/29 12:14:17;;;;;;;7.88;3.72;;;11.10;99.90;;;;;;5013153;28;20067;-74
2023/03/29 12:16:43;;;;;;;6.47;3.92;;;11.00;99.90;;;;;;5015253;28;20067;-74
2023/03/29 12:19:33;;;;;;;5.40;3.50;;;11.00;99.90;;;;;;5049271;28;20123;-75
2023/03/29 12:21:59;;;;;;;6.70;3.55;;;10.90;99.90;;;;;;5020364;28;20071;-75
2023/03/29 12:24:27;;;;;;;6.97;3.33;;;10.70;99.90;;;;;;5035478;28;20048;-75
2023/03/29 12:27:15;;;;;;;7.63;3.65;;;10.70;99.90;;;;;;5019707;28;20131;-75
2023/03/29 12:30:01;;;;;;;5.53;3.40;;;10.70;99.90;;;;;;5034329;28;20060;-76
2023/03/29 12:32:54;;;;;;;6.30;4.22;;;10.50;99.90;;;;;;5042822;28;20454;-75
2023/03/29 12:35:29;;;;;;;5.60;3.60;;;10.60;99.90;;;;;;5033495;28;20725;-74
2023/03/29 12:38:01;;;;;;;6.78;3.30;;;10.60;99.90;;;;;;5041362;28;20045;-75
2023/03/29 12:40:27;;;;;;;5.30;3.20;;;10.70;99.90;;;;;;5038503;28;20201;-75
2023/03/29 12:43:01;;;;;;;4.68;3.20;;;11.00;99.90;;;;;;5028364;28;20116;-75
2023/03/29 12:45:33;;;;;;;6.65;3.65;;;11.00;99.90;;;;;;5026485;28;20088;-76
2023/03/29 12:47:59;;;;;;;6.55;3.70;;;11.10;99.90;;;;;;5036912;28;20124;-75
2023/03/29 12:50:36;;;;;;;6.40;3.88;;;11.10;99.90;;;;;;5026837;28;20041;-75
2023/03/29 12:53:21;;;;;;;16.90;8.32;;;10.90;99.90;;;;;;5042011;28;20110;-75
2023/03/29 12:55:59;;;;;;;6.38;4.07;;;10.70;99.90;;;;;;5035709;28;20052;-75
2023/03/29 12:58:44;;;;;;;6.97;3.85;;;11.10;99.90;;;;;;5026419;28;20037;-75
2023/03/29 13:01:30;;;;;;;6.78;3.28;;;11.40;99.90;;;;;;5020301;28;20474;-75
2023/03/29 13:03:59;;;;;;;5.38;3.97;;;11.60;99.90;;;;;;5030661;28;20053;-76
2023/03/29 13:06:49;;;;;;;7.30;3.95;;;11.50;99.90;;;;;;5047663;28;20369;-75
2023/03/29 13:09:23;;;;;;;4.82;3.50;;;11.80;99.90;;;;;;5026927;28;20053;-75
2023/03/29 13:11:53;;;;;;;7.10;3.97;;;11.50;99.90;;;;;;5039171;28;20053;-75